sensor_id;sensor_type;location;lat;lon;timestamp;pressure;altitude;pressure_sealevel;temperature;humidity
79692;BME280;69158;55.592;37.610;2023-05-07T00:01:23;100371.50;;;0.77;61.34
79692;BME280;69158;55.592;37.610;2023-05-07T00:04:09;100353.56;;;0.62;61.78
79692;BME280;69158;55.592;37.610;2023-05-07T00:06:55;100345.28;;;0.57;61.97
79692;BME280;69158;55.592;37.610;2023-05-07T00:09:41;100369.81;;;0.64;61.89
79692;BME280;69158;55.592;37.610;2023-05-07T00:12:27;100364.09;;;0.59;61.96
79692;BME280;69158;55.592;37.610;2023-05-07T00:15:17;100348.00;;;0.55;61.83
79692;BME280;69158;55.592;37.610;2023-05-07T00:18:03;100355.81;;;0.54;62.07
79692;BME280;69158;55.592;37.610;2023-05-07T00:20:50;100368.16;;;0.63;61.88
79692;BME280;69158;55.592;37.610;2023-05-07T00:23:37;100367.41;;;0.61;62.38
79692;BME280;69158;55.592;37.610;2023-05-07T00:26:24;100339.25;;;0.43;62.06
79692;BME280;69158;55.592;37.610;2023-05-07T00:29:10;100345.25;;;0.44;62.50
79692;BME280;69158;55.592;37.610;2023-05-07T00:31:56;100357.53;;;0.40;63.04
79692;BME280;69158;55.592;37.610;2023-05-07T00:34:43;100370.91;;;0.47;62.92
79692;BME280;69158;55.592;37.610;2023-05-07T00:37:29;100370.44;;;0.40;63.15
79692;BME280;69158;55.592;37.610;2023-05-07T00:40:16;100373.94;;;0.39;63.21
79692;BME280;69158;55.592;37.610;2023-05-07T00:43:02;100363.41;;;0.30;63.39
79692;BME280;69158;55.592;37.610;2023-05-07T00:45:53;100377.66;;;0.35;63.45
79692;BME280;69158;55.592;37.610;2023-05-07T00:48:39;100367.28;;;0.23;63.69
79692;BME280;69158;55.592;37.610;2023-05-07T00:51:27;100382.59;;;0.26;63.49
79692;BME280;69158;55.592;37.610;2023-05-07T00:54:14;100357.13;;;0.07;63.79
79692;BME280;69158;55.592;37.610;2023-05-07T00:57:02;100370.66;;;0.11;64.04
79692;BME280;69158;55.592;37.610;2023-05-07T00:59:48;100388.06;;;0.21;64.14
79692;BME280;69158;55.592;37.610;2023-05-07T01:02:36;100357.19;;;0.06;64.21
79692;BME280;69158;55.592;37.610;2023-05-07T01:05:23;100362.00;;;0.12;64.41
79692;BME280;69158;55.592;37.610;2023-05-07T01:08:10;100360.63;;;0.06;64.22
79692;BME280;69158;55.592;37.610;2023-05-07T01:10:57;100349.31;;;-0.06;64.65
79692;BME280;69158;55.592;37.610;2023-05-07T01:13:43;100377.75;;;0.07;64.71
79692;BME280;69158;55.592;37.610;2023-05-07T01:16:33;100381.16;;;0.08;64.35
79692;BME280;69158;55.592;37.610;2023-05-07T01:19:19;100380.69;;;0.15;64.55
79692;BME280;69158;55.592;37.610;2023-05-07T01:22:08;100386.47;;;0.19;64.33
79692;BME280;69158;55.592;37.610;2023-05-07T01:24:55;100382.00;;;0.08;64.63
79692;BME280;69158;55.592;37.610;2023-05-07T01:27:41;100361.88;;;-0.14;64.70
79692;BME280;69158;55.592;37.610;2023-05-07T01:30:29;100376.50;;;0.00;64.65
79692;BME280;69158;55.592;37.610;2023-05-07T01:33:20;100393.31;;;0.06;64.90
79692;BME280;69158;55.592;37.610;2023-05-07T01:36:09;100397.38;;;0.10;64.67
79692;BME280;69158;55.592;37.610;2023-05-07T01:38:58;100398.19;;;0.10;65.12
79692;BME280;69158;55.592;37.610;2023-05-07T01:41:45;100385.78;;;0.03;64.62
79692;BME280;69158;55.592;37.610;2023-05-07T01:44:31;100394.16;;;0.06;64.52
79692;BME280;69158;55.592;37.610;2023-05-07T01:47:17;100388.28;;;0.04;64.85
79692;BME280;69158;55.592;37.610;2023-05-07T01:50:05;100360.28;;;-0.16;64.46
79692;BME280;69158;55.592;37.610;2023-05-07T01:52:52;100415.78;;;0.18;64.31
79692;BME280;69158;55.592;37.610;2023-05-07T01:55:37;100406.34;;;0.04;64.76
79692;BME280;69158;55.592;37.610;2023-05-07T01:58:24;100395.47;;;-0.01;64.59
79692;BME280;69158;55.592;37.610;2023-05-07T02:01:09;100357.16;;;-0.21;64.77
79692;BME280;69158;55.592;37.610;2023-05-07T02:03:55;100402.53;;;0.10;64.24
79692;BME280;69158;55.592;37.610;2023-05-07T02:06:43;100419.38;;;0.15;64.03
79692;BME280;69158;55.592;37.610;2023-05-07T02:09:29;100423.91;;;0.26;64.09
79692;BME280;69158;55.592;37.610;2023-05-07T02:12:15;100436.81;;;0.26;64.28
79692;BME280;69158;55.592;37.610;2023-05-07T02:15:01;100413.78;;;0.09;64.38
79692;BME280;69158;55.592;37.610;2023-05-07T02:18:02;100424.06;;;0.23;64.37
79692;BME280;69158;55.592;37.610;2023-05-07T02:20:48;100440.00;;;0.29;63.99
79692;BME280;69158;55.592;37.610;2023-05-07T02:23:34;100414.03;;;0.18;63.93
79692;BME280;69158;55.592;37.610;2023-05-07T02:26:20;100434.16;;;0.40;63.91
79692;BME280;69158;55.592;37.610;2023-05-07T02:29:07;100419.06;;;0.34;63.95
79692;BME280;69158;55.592;37.610;2023-05-07T02:31:53;100442.91;;;0.52;63.38
79692;BME280;69158;55.592;37.610;2023-05-07T02:34:39;100417.00;;;0.39;63.52
79692;BME280;69158;55.592;37.610;2023-05-07T02:37:26;100386.28;;;0.22;63.59
79692;BME280;69158;55.592;37.610;2023-05-07T02:40:12;100443.88;;;0.63;63.19
79692;BME280;69158;55.592;37.610;2023-05-07T02:42:58;100441.03;;;0.54;63.59
79692;BME280;69158;55.592;37.610;2023-05-07T02:45:44;100431.97;;;0.61;63.46
79692;BME280;69158;55.592;37.610;2023-05-07T02:48:30;100446.00;;;0.83;62.80
79692;BME280;69158;55.592;37.610;2023-05-07T02:51:19;100413.81;;;0.62;62.60
79692;BME280;69158;55.592;37.610;2023-05-07T02:54:05;100427.50;;;0.77;62.29
79692;BME280;69158;55.592;37.610;2023-05-07T02:56:51;100394.47;;;0.55;62.33
79692;BME280;69158;55.592;37.610;2023-05-07T02:59:37;100454.91;;;0.92;61.90
79692;BME280;69158;55.592;37.610;2023-05-07T03:02:23;100424.19;;;0.87;61.95
79692;BME280;69158;55.592;37.610;2023-05-07T03:05:09;100463.66;;;1.16;61.45
79692;BME280;69158;55.592;37.610;2023-05-07T03:07:56;100468.34;;;1.36;61.07
79692;BME280;69158;55.592;37.610;2023-05-07T03:10:42;100459.53;;;1.39;60.67
79692;BME280;69158;55.592;37.610;2023-05-07T03:13:27;100455.94;;;1.42;60.44
79692;BME280;69158;55.592;37.610;2023-05-07T03:16:13;100450.63;;;1.43;60.46
79692;BME280;69158;55.592;37.610;2023-05-07T03:18:59;100421.56;;;1.40;59.65
79692;BME280;69158;55.592;37.610;2023-05-07T03:21:45;100427.69;;;1.51;59.59
79692;BME280;69158;55.592;37.610;2023-05-07T03:24:31;100452.28;;;1.69;59.32
79692;BME280;69158;55.592;37.610;2023-05-07T03:27:17;100471.75;;;1.88;58.46
79692;BME280;69158;55.592;37.610;2023-05-07T03:30:03;100473.91;;;2.06;58.40
79692;BME280;69158;55.592;37.610;2023-05-07T03:32:50;100487.72;;;2.31;57.67
79692;BME280;69158;55.592;37.610;2023-05-07T03:35:36;100466.91;;;2.32;56.90
79692;BME280;69158;55.592;37.610;2023-05-07T03:38:22;100430.47;;;2.22;56.41
79692;BME280;69158;55.592;37.610;2023-05-07T03:41:08;100457.06;;;2.24;56.81
79692;BME280;69158;55.592;37.610;2023-05-07T03:43:54;100456.19;;;2.49;56.04
79692;BME280;69158;55.592;37.610;2023-05-07T03:46:40;100492.47;;;2.73;55.66
79692;BME280;69158;55.592;37.610;2023-05-07T03:49:26;100422.44;;;2.38;55.37
79692;BME280;69158;55.592;37.610;2023-05-07T03:52:13;100501.63;;;2.90;55.16
79692;BME280;69158;55.592;37.610;2023-05-07T03:54:59;100500.09;;;2.87;55.41
79692;BME280;69158;55.592;37.610;2023-05-07T03:57:45;100509.56;;;2.99;54.37
79692;BME280;69158;55.592;37.610;2023-05-07T04:00:31;100505.72;;;3.05;54.03
79692;BME280;69158;55.592;37.610;2023-05-07T04:03:19;100488.16;;;3.08;53.77
79692;BME280;69158;55.592;37.610;2023-05-07T04:06:05;100510.50;;;3.22;53.39
79692;BME280;69158;55.592;37.610;2023-05-07T04:08:51;100512.63;;;3.28;53.12
79692;BME280;69158;55.592;37.610;2023-05-07T04:11:37;100495.09;;;3.32;52.43
79692;BME280;69158;55.592;37.610;2023-05-07T04:14:25;100503.19;;;3.27;52.90
79692;BME280;69158;55.592;37.610;2023-05-07T04:17:11;100503.72;;;3.54;51.94
79692;BME280;69158;55.592;37.610;2023-05-07T04:19:58;100520.72;;;3.58;52.35
79692;BME280;69158;55.592;37.610;2023-05-07T04:22:43;100492.22;;;3.70;51.51
79692;BME280;69158;55.592;37.610;2023-05-07T04:25:31;100500.16;;;3.79;50.65
79692;BME280;69158;55.592;37.610;2023-05-07T04:28:17;100489.53;;;3.82;49.64
79692;BME280;69158;55.592;37.610;2023-05-07T04:31:03;100491.75;;;3.87;49.65
79692;BME280;69158;55.592;37.610;2023-05-07T04:33:52;100514.66;;;3.93;49.98
79692;BME280;69158;55.592;37.610;2023-05-07T04:36:38;100506.06;;;3.92;49.52
79692;BME280;69158;55.592;37.610;2023-05-07T04:39:24;100530.94;;;4.06;49.17
79692;BME280;69158;55.592;37.610;2023-05-07T04:42:14;100505.56;;;3.87;48.55
79692;BME280;69158;55.592;37.610;2023-05-07T04:45:01;100507.22;;;3.99;48.25
79692;BME280;69158;55.592;37.610;2023-05-07T04:47:47;100515.16;;;4.09;47.70
79692;BME280;69158;55.592;37.610;2023-05-07T04:50:33;100533.44;;;4.41;47.39
79692;BME280;69158;55.592;37.610;2023-05-07T04:53:20;100494.38;;;4.09;47.26
79692;BME280;69158;55.592;37.610;2023-05-07T04:56:06;100527.66;;;4.37;47.59
79692;BME280;69158;55.592;37.610;2023-05-07T04:58:52;100520.34;;;4.31;47.05
79692;BME280;69158;55.592;37.610;2023-05-07T05:01:39;100538.50;;;4.65;46.72
79692;BME280;69158;55.592;37.610;2023-05-07T05:04:26;100533.91;;;4.57;46.28
79692;BME280;69158;55.592;37.610;2023-05-07T05:07:11;100528.47;;;4.60;45.34
79692;BME280;69158;55.592;37.610;2023-05-07T05:09:57;100537.63;;;4.86;45.04
79692;BME280;69158;55.592;37.610;2023-05-07T05:12:44;100527.84;;;4.68;44.79
79692;BME280;69158;55.592;37.610;2023-05-07T05:15:29;100542.31;;;4.92;44.22
79692;BME280;69158;55.592;37.610;2023-05-07T05:18:15;100535.94;;;4.96;43.84
79692;BME280;69158;55.592;37.610;2023-05-07T05:21:03;100531.19;;;5.01;42.77
79692;BME280;69158;55.592;37.610;2023-05-07T05:23:49;100510.31;;;4.81;42.67
79692;BME280;69158;55.592;37.610;2023-05-07T05:26:35;100539.81;;;5.02;42.62
79692;BME280;69158;55.592;37.610;2023-05-07T05:29:21;100523.13;;;4.73;42.73
79692;BME280;69158;55.592;37.610;2023-05-07T05:32:06;100509.97;;;4.85;41.60
79692;BME280;69158;55.592;37.610;2023-05-07T05:34:52;100514.63;;;5.02;40.58
79692;BME280;69158;55.592;37.610;2023-05-07T05:37:38;100538.97;;;5.13;40.41
79692;BME280;69158;55.592;37.610;2023-05-07T05:40:24;100560.31;;;5.27;40.61
79692;BME280;69158;55.592;37.610;2023-05-07T05:43:10;100560.63;;;5.02;41.36
79692;BME280;69158;55.592;37.610;2023-05-07T05:45:57;100554.81;;;5.10;41.03
79692;BME280;69158;55.592;37.610;2023-05-07T05:48:43;100537.38;;;4.89;39.00
79692;BME280;69158;55.592;37.610;2023-05-07T05:51:29;100541.44;;;5.14;39.70
79692;BME280;69158;55.592;37.610;2023-05-07T05:54:15;100554.63;;;5.22;39.25
79692;BME280;69158;55.592;37.610;2023-05-07T05:57:01;100564.28;;;5.42;40.31
79692;BME280;69158;55.592;37.610;2023-05-07T05:59:49;100553.44;;;5.58;38.65
79692;BME280;69158;55.592;37.610;2023-05-07T06:02:36;100536.97;;;5.37;39.56
79692;BME280;69158;55.592;37.610;2023-05-07T06:05:22;100565.41;;;5.49;39.75
79692;BME280;69158;55.592;37.610;2023-05-07T06:08:09;100552.47;;;5.38;39.76
79692;BME280;69158;55.592;37.610;2023-05-07T06:10:55;100559.19;;;5.62;38.54
79692;BME280;69158;55.592;37.610;2023-05-07T06:13:42;100531.41;;;5.62;38.38
79692;BME280;69158;55.592;37.610;2023-05-07T06:16:28;100569.25;;;6.68;37.18
79692;BME280;69158;55.592;37.610;2023-05-07T06:19:14;100550.81;;;8.60;35.17
79692;BME280;69158;55.592;37.610;2023-05-07T06:22:01;100558.34;;;10.05;30.11
79692;BME280;69158;55.592;37.610;2023-05-07T06:24:48;100556.72;;;11.46;28.47
79692;BME280;69158;55.592;37.610;2023-05-07T06:27:34;100544.69;;;12.16;26.94
79692;BME280;69158;55.592;37.610;2023-05-07T06:30:20;100541.28;;;12.78;26.50
79692;BME280;69158;55.592;37.610;2023-05-07T06:33:05;100545.66;;;12.93;26.71
79692;BME280;69158;55.592;37.610;2023-05-07T06:35:51;100546.59;;;12.31;24.88
79692;BME280;69158;55.592;37.610;2023-05-07T06:38:40;100552.28;;;10.64;26.75
79692;BME280;69158;55.592;37.610;2023-05-07T06:41:26;100559.97;;;10.06;28.12
79692;BME280;69158;55.592;37.610;2023-05-07T06:44:12;100570.94;;;9.58;29.33
79692;BME280;69158;55.592;37.610;2023-05-07T06:46:58;100556.50;;;9.36;30.28
79692;BME280;69158;55.592;37.610;2023-05-07T06:49:44;100553.91;;;9.19;30.63
79692;BME280;69158;55.592;37.610;2023-05-07T06:52:30;100567.13;;;8.45;31.84
79692;BME280;69158;55.592;37.610;2023-05-07T06:55:16;100552.72;;;8.21;32.42
79692;BME280;69158;55.592;37.610;2023-05-07T06:58:02;100566.38;;;9.25;30.59
79692;BME280;69158;55.592;37.610;2023-05-07T07:00:47;100561.16;;;10.37;29.07
79692;BME280;69158;55.592;37.610;2023-05-07T07:03:33;100555.31;;;11.02;27.39
79692;BME280;69158;55.592;37.610;2023-05-07T07:06:19;100552.56;;;12.08;26.13
79692;BME280;69158;55.592;37.610;2023-05-07T07:09:05;100548.00;;;11.78;26.14
79692;BME280;69158;55.592;37.610;2023-05-07T07:11:51;100552.91;;;11.41;26.52
79692;BME280;69158;55.592;37.610;2023-05-07T07:14:37;100537.63;;;11.52;25.36
79692;BME280;69158;55.592;37.610;2023-05-07T07:17:23;100554.56;;;11.50;25.43
79692;BME280;69158;55.592;37.610;2023-05-07T07:20:10;100532.19;;;10.47;25.38
79692;BME280;69158;55.592;37.610;2023-05-07T07:22:56;100564.78;;;9.49;27.25
79692;BME280;69158;55.592;37.610;2023-05-07T07:25:42;100562.97;;;9.85;27.68
79692;BME280;69158;55.592;37.610;2023-05-07T07:28:28;100550.44;;;10.57;25.68
79692;BME280;69158;55.592;37.610;2023-05-07T07:31:14;100563.16;;;12.47;24.59
79692;BME280;69158;55.592;37.610;2023-05-07T07:34:00;100557.59;;;13.80;22.44
79692;BME280;69158;55.592;37.610;2023-05-07T07:36:46;100528.81;;;14.88;21.24
79692;BME280;69158;55.592;37.610;2023-05-07T07:39:32;100536.00;;;15.79;19.01
79692;BME280;69158;55.592;37.610;2023-05-07T07:42:18;100530.91;;;16.12;18.96
79692;BME280;69158;55.592;37.610;2023-05-07T07:45:05;100529.97;;;14.49;20.01
79692;BME280;69158;55.592;37.610;2023-05-07T07:47:51;100521.59;;;12.26;22.03
79692;BME280;69158;55.592;37.610;2023-05-07T07:50:39;100534.03;;;11.21;23.79
79692;BME280;69158;55.592;37.610;2023-05-07T07:53:25;100549.59;;;10.48;24.67
79692;BME280;69158;55.592;37.610;2023-05-07T07:56:11;100516.09;;;9.82;25.73
79692;BME280;69158;55.592;37.610;2023-05-07T07:58:57;100546.81;;;12.05;23.82
79692;BME280;69158;55.592;37.610;2023-05-07T08:01:46;100536.19;;;13.90;21.58
79692;BME280;69158;55.592;37.610;2023-05-07T08:04:35;100524.66;;;15.00;20.09
79692;BME280;69158;55.592;37.610;2023-05-07T08:07:22;100527.81;;;15.74;18.76
79692;BME280;69158;55.592;37.610;2023-05-07T08:10:08;100534.53;;;16.04;16.75
79692;BME280;69158;55.592;37.610;2023-05-07T08:12:55;100507.19;;;15.97;16.53
79692;BME280;69158;55.592;37.610;2023-05-07T08:15:43;100529.59;;;17.63;15.67
79692;BME280;69158;55.592;37.610;2023-05-07T08:18:32;100538.34;;;17.38;15.67
79692;BME280;69158;55.592;37.610;2023-05-07T08:21:18;100532.66;;;17.67;15.38
79692;BME280;69158;55.592;37.610;2023-05-07T08:24:04;100525.88;;;16.23;16.38
79692;BME280;69158;55.592;37.610;2023-05-07T08:26:50;100525.69;;;16.25;16.87
79692;BME280;69158;55.592;37.610;2023-05-07T08:29:36;100524.06;;;17.78;15.86
79692;BME280;69158;55.592;37.610;2023-05-07T08:32:22;100510.94;;;18.09;14.73
79692;BME280;69158;55.592;37.610;2023-05-07T08:35:08;100516.13;;;17.72;14.63
79692;BME280;69158;55.592;37.610;2023-05-07T08:37:55;100535.44;;;16.18;16.24
79692;BME280;69158;55.592;37.610;2023-05-07T08:40:41;100527.38;;;14.12;18.40
79692;BME280;69158;55.592;37.610;2023-05-07T08:43:28;100524.69;;;12.69;20.67
79692;BME280;69158;55.592;37.610;2023-05-07T08:46:21;100526.31;;;11.60;21.52
79692;BME280;69158;55.592;37.610;2023-05-07T08:49:07;100545.53;;;11.44;22.83
79692;BME280;69158;55.592;37.610;2023-05-07T08:51:54;100540.25;;;11.44;22.69
79692;BME280;69158;55.592;37.610;2023-05-07T08:54:40;100539.28;;;11.45;23.04
79692;BME280;69158;55.592;37.610;2023-05-07T08:57:26;100539.94;;;11.63;23.04
79692;BME280;69158;55.592;37.610;2023-05-07T09:00:13;100525.97;;;12.81;20.95
79692;BME280;69158;55.592;37.610;2023-05-07T09:03:02;100505.19;;;14.21;19.43
79692;BME280;69158;55.592;37.610;2023-05-07T09:05:49;100517.44;;;16.07;17.46
79692;BME280;69158;55.592;37.610;2023-05-07T09:08:35;100515.72;;;14.65;18.92
79692;BME280;69158;55.592;37.610;2023-05-07T09:11:23;100538.22;;;14.02;19.23
79692;BME280;69158;55.592;37.610;2023-05-07T09:14:09;100529.41;;;13.58;18.94
79692;BME280;69158;55.592;37.610;2023-05-07T09:16:55;100525.78;;;12.52;20.08
79692;BME280;69158;55.592;37.610;2023-05-07T09:19:44;100541.03;;;13.26;19.23
79692;BME280;69158;55.592;37.610;2023-05-07T09:22:37;100536.41;;;14.97;17.65
79692;BME280;69158;55.592;37.610;2023-05-07T09:25:30;100523.41;;;17.43;15.50
79692;BME280;69158;55.592;37.610;2023-05-07T09:28:16;100518.09;;;18.09;15.19
79692;BME280;69158;55.592;37.610;2023-05-07T09:31:06;100483.34;;;18.04;15.25
79692;BME280;69158;55.592;37.610;2023-05-07T09:33:52;100521.59;;;17.50;15.10
79692;BME280;69158;55.592;37.610;2023-05-07T09:36:38;100518.13;;;15.17;16.34
79692;BME280;69158;55.592;37.610;2023-05-07T09:39:25;100504.25;;;13.99;17.34
79692;BME280;69158;55.592;37.610;2023-05-07T09:42:11;100522.50;;;13.34;18.43
79692;BME280;69158;55.592;37.610;2023-05-07T09:44:59;100525.88;;;12.97;19.21
79692;BME280;69158;55.592;37.610;2023-05-07T09:47:46;100514.41;;;12.12;19.23
79692;BME280;69158;55.592;37.610;2023-05-07T09:50:45;100528.47;;;13.51;18.94
79692;BME280;69158;55.592;37.610;2023-05-07T09:53:34;100516.59;;;14.36;17.15
79692;BME280;69158;55.592;37.610;2023-05-07T09:56:21;100521.31;;;15.76;16.02
79692;BME280;69158;55.592;37.610;2023-05-07T09:59:07;100498.44;;;15.69;15.65
79692;BME280;69158;55.592;37.610;2023-05-07T10:01:57;100515.28;;;15.61;16.19
79692;BME280;69158;55.592;37.610;2023-05-07T10:04:44;100506.47;;;15.12;16.53
79692;BME280;69158;55.592;37.610;2023-05-07T10:07:31;100517.84;;;15.76;16.03
79692;BME280;69158;55.592;37.610;2023-05-07T10:10:20;100511.97;;;17.23;15.13
79692;BME280;69158;55.592;37.610;2023-05-07T10:13:06;100507.41;;;16.84;15.28
79692;BME280;69158;55.592;37.610;2023-05-07T10:15:57;100515.25;;;17.91;14.76
79692;BME280;69158;55.592;37.610;2023-05-07T10:18:43;100491.28;;;16.72;14.96
79692;BME280;69158;55.592;37.610;2023-05-07T10:21:30;100518.50;;;16.19;15.19
79692;BME280;69158;55.592;37.610;2023-05-07T10:24:32;100527.13;;;15.44;15.89
79692;BME280;69158;55.592;37.610;2023-05-07T10:27:20;100526.91;;;14.82;16.52
79692;BME280;69158;55.592;37.610;2023-05-07T10:30:31;100517.59;;;15.28;16.02
79692;BME280;69158;55.592;37.610;2023-05-07T10:33:23;100487.09;;;16.50;15.45
79692;BME280;69158;55.592;37.610;2023-05-07T10:36:12;100495.88;;;17.38;15.18
79692;BME280;69158;55.592;37.610;2023-05-07T10:38:59;100515.31;;;18.62;13.80
79692;BME280;69158;55.592;37.610;2023-05-07T10:41:45;100506.59;;;19.17;13.28
79692;BME280;69158;55.592;37.610;2023-05-07T10:44:31;100510.53;;;19.39;13.11
79692;BME280;69158;55.592;37.610;2023-05-07T10:47:17;100488.78;;;19.42;12.85
79692;BME280;69158;55.592;37.610;2023-05-07T10:56:25;100498.53;;;19.55;12.43
79692;BME280;69158;55.592;37.610;2023-05-07T11:02:09;100497.00;;;20.09;12.05
79692;BME280;69158;55.592;37.610;2023-05-07T11:05:18;100515.75;;;19.28;12.17
79692;BME280;69158;55.592;37.610;2023-05-07T11:14:44;100497.03;;;19.66;11.92
79692;BME280;69158;55.592;37.610;2023-05-07T11:17:31;100493.63;;;19.59;11.88
79692;BME280;69158;55.592;37.610;2023-05-07T11:20:17;100498.09;;;17.08;13.41
79692;BME280;69158;55.592;37.610;2023-05-07T11:23:03;100506.03;;;15.51;14.84
79692;BME280;69158;55.592;37.610;2023-05-07T11:25:49;100501.66;;;14.79;16.37
79692;BME280;69158;55.592;37.610;2023-05-07T11:28:40;100497.06;;;14.08;16.79
79692;BME280;69158;55.592;37.610;2023-05-07T11:31:27;100508.63;;;13.40;17.46
79692;BME280;69158;55.592;37.610;2023-05-07T11:34:15;100516.78;;;15.28;16.16
79692;BME280;69158;55.592;37.610;2023-05-07T11:37:06;100508.91;;;14.27;16.59
79692;BME280;69158;55.592;37.610;2023-05-07T11:40:09;100491.28;;;15.41;15.57
79692;BME280;69158;55.592;37.610;2023-05-07T11:42:56;100507.19;;;15.97;15.59
79692;BME280;69158;55.592;37.610;2023-05-07T11:45:42;100513.25;;;14.78;15.80
79692;BME280;69158;55.592;37.610;2023-05-07T11:48:28;100514.22;;;13.60;17.17
79692;BME280;69158;55.592;37.610;2023-05-07T11:51:18;100519.91;;;13.03;18.02
79692;BME280;69158;55.592;37.610;2023-05-07T11:54:05;100522.38;;;12.74;18.38
79692;BME280;69158;55.592;37.610;2023-05-07T11:56:55;100505.03;;;12.10;18.93
79692;BME280;69158;55.592;37.610;2023-05-07T11:59:42;100503.31;;;11.54;19.73
79692;BME280;69158;55.592;37.610;2023-05-07T12:02:29;100530.44;;;11.46;19.97
79692;BME280;69158;55.592;37.610;2023-05-07T12:05:17;100529.13;;;11.26;20.95
79692;BME280;69158;55.592;37.610;2023-05-07T12:08:03;100534.84;;;11.54;20.23
79692;BME280;69158;55.592;37.610;2023-05-07T12:10:50;100520.72;;;11.63;19.78
79692;BME280;69158;55.592;37.610;2023-05-07T12:13:35;100532.97;;;12.97;19.09
79692;BME280;69158;55.592;37.610;2023-05-07T12:16:22;100530.94;;;14.99;17.46
79692;BME280;69158;55.592;37.610;2023-05-07T12:19:08;100517.00;;;16.44;15.96
79692;BME280;69158;55.592;37.610;2023-05-07T12:21:58;100511.59;;;17.79;15.03
79692;BME280;69158;55.592;37.610;2023-05-07T12:24:45;100501.81;;;17.73;14.21
79692;BME280;69158;55.592;37.610;2023-05-07T12:27:31;100490.69;;;16.84;14.11
79692;BME280;69158;55.592;37.610;2023-05-07T12:30:17;100506.16;;;15.00;15.62
79692;BME280;69158;55.592;37.610;2023-05-07T12:33:04;100513.38;;;13.45;17.21
79692;BME280;69158;55.592;37.610;2023-05-07T12:35:50;100518.56;;;12.85;17.77
79692;BME280;69158;55.592;37.610;2023-05-07T12:38:38;100504.03;;;12.58;18.38
79692;BME280;69158;55.592;37.610;2023-05-07T12:41:24;100507.88;;;11.92;19.09
79692;BME280;69158;55.592;37.610;2023-05-07T12:44:15;100524.34;;;11.62;19.73
79692;BME280;69158;55.592;37.610;2023-05-07T12:47:04;100498.88;;;11.46;19.22
79692;BME280;69158;55.592;37.610;2023-05-07T12:49:49;100506.91;;;11.93;19.22
79692;BME280;69158;55.592;37.610;2023-05-07T12:52:36;100486.91;;;13.15;18.45
79692;BME280;69158;55.592;37.610;2023-05-07T12:55:25;100481.72;;;14.41;17.37
79692;BME280;69158;55.592;37.610;2023-05-07T12:58:24;100509.19;;;14.97;16.33
79692;BME280;69158;55.592;37.610;2023-05-07T13:01:11;100443.38;;;13.86;16.86
79692;BME280;69158;55.592;37.610;2023-05-07T13:04:09;100504.53;;;14.84;16.47
79692;BME280;69158;55.592;37.610;2023-05-07T13:06:55;100473.84;;;15.75;16.19
79692;BME280;69158;55.592;37.610;2023-05-07T13:13:11;100507.03;;;14.71;15.93
79692;BME280;69158;55.592;37.610;2023-05-07T13:15:58;100514.91;;;13.16;17.52
79692;BME280;69158;55.592;37.610;2023-05-07T13:18:48;100484.66;;;12.43;18.23
79692;BME280;69158;55.592;37.610;2023-05-07T13:21:33;100483.69;;;12.05;19.48
79692;BME280;69158;55.592;37.610;2023-05-07T13:24:23;100455.84;;;12.18;18.91
79692;BME280;69158;55.592;37.610;2023-05-07T13:27:09;100486.31;;;13.66;17.95
79692;BME280;69158;55.592;37.610;2023-05-07T13:29:57;100505.22;;;13.54;17.96
79692;BME280;69158;55.592;37.610;2023-05-07T13:32:46;100436.66;;;12.41;18.63
79692;BME280;69158;55.592;37.610;2023-05-07T13:35:38;100492.16;;;12.62;18.96
79692;BME280;69158;55.592;37.610;2023-05-07T13:38:24;100471.69;;;12.41;18.94
79692;BME280;69158;55.592;37.610;2023-05-07T13:41:10;100518.09;;;12.34;19.54
79692;BME280;69158;55.592;37.610;2023-05-07T13:43:58;100521.00;;;12.16;19.53
79692;BME280;69158;55.592;37.610;2023-05-07T13:46:44;100524.34;;;11.86;20.07
79692;BME280;69158;55.592;37.610;2023-05-07T13:49:30;100512.66;;;11.48;19.94
79692;BME280;69158;55.592;37.610;2023-05-07T13:52:17;100513.84;;;11.21;21.19
79692;BME280;69158;55.592;37.610;2023-05-07T13:55:03;100506.09;;;11.28;20.95
79692;BME280;69158;55.592;37.610;2023-05-07T13:57:57;100518.53;;;10.85;20.52
79692;BME280;69158;55.592;37.610;2023-05-07T14:00:43;100534.63;;;10.82;20.56
79692;BME280;69158;55.592;37.610;2023-05-07T14:03:32;100525.00;;;10.57;21.67
79692;BME280;69158;55.592;37.610;2023-05-07T14:06:19;100486.56;;;10.14;21.34
79692;BME280;69158;55.592;37.610;2023-05-07T14:09:05;100479.81;;;10.03;21.95
79692;BME280;69158;55.592;37.610;2023-05-07T14:11:53;100460.06;;;9.83;22.36
79692;BME280;69158;55.592;37.610;2023-05-07T14:14:39;100437.13;;;9.60;21.88
79692;BME280;69158;55.592;37.610;2023-05-07T14:17:26;100532.06;;;9.97;22.12
79692;BME280;69158;55.592;37.610;2023-05-07T14:20:15;100471.97;;;9.52;22.21
79692;BME280;69158;55.592;37.610;2023-05-07T14:23:01;100492.22;;;9.68;21.92
79692;BME280;69158;55.592;37.610;2023-05-07T14:25:49;100435.66;;;9.31;22.04
79692;BME280;69158;55.592;37.610;2023-05-07T14:28:39;100521.09;;;9.76;21.93
79692;BME280;69158;55.592;37.610;2023-05-07T14:31:27;100435.16;;;9.10;22.74
79692;BME280;69158;55.592;37.610;2023-05-07T14:34:15;100521.25;;;9.48;22.60
79692;BME280;69158;55.592;37.610;2023-05-07T14:37:01;100525.56;;;9.57;22.78
79692;BME280;69158;55.592;37.610;2023-05-07T14:39:47;100491.28;;;9.77;22.16
79692;BME280;69158;55.592;37.610;2023-05-07T14:42:33;100447.16;;;9.64;22.42
79692;BME280;69158;55.592;37.610;2023-05-07T14:45:21;100454.44;;;9.78;22.38
79692;BME280;69158;55.592;37.610;2023-05-07T14:48:07;100471.94;;;9.70;22.54